sensor_id;sensor_type;location;lat;lon;timestamp;temperature;humidity
44729;DHT22;30457;53.590;9.922;2023-07-20T00:03:15;20.00;51.60
44729;DHT22;30457;53.590;9.922;2023-07-20T00:07:44;20.00;52.20
44729;DHT22;30457;53.590;9.922;2023-07-20T00:12:10;20.00;51.90
44729;DHT22;30457;53.590;9.922;2023-07-20T00:16:35;20.00;52.00
44729;DHT22;30457;53.590;9.922;2023-07-20T00:21:01;20.00;52.00
44729;DHT22;30457;53.590;9.922;2023-07-20T00:25:27;20.00;52.00
44729;DHT22;30457;53.590;9.922;2023-07-20T00:29:52;20.00;52.00
44729;DHT22;30457;53.590;9.922;2023-07-20T00:34:18;20.00;52.00
44729;DHT22;30457;53.590;9.922;2023-07-20T00:38:44;20.00;52.10
44729;DHT22;30457;53.590;9.922;2023-07-20T00:43:09;20.00;52.10
44729;DHT22;30457;53.590;9.922;2023-07-20T00:47:36;20.00;52.20
44729;DHT22;30457;53.590;9.922;2023-07-20T00:52:03;19.90;53.00
44729;DHT22;30457;53.590;9.922;2023-07-20T00:56:30;19.90;52.60
44729;DHT22;30457;53.590;9.922;2023-07-20T01:00:55;19.90;52.60
44729;DHT22;30457;53.590;9.922;2023-07-20T01:05:23;19.80;52.90
44729;DHT22;30457;53.590;9.922;2023-07-20T01:14:31;19.70;53.50
44729;DHT22;30457;53.590;9.922;2023-07-20T01:18:57;19.70;53.30
44729;DHT22;30457;53.590;9.922;2023-07-20T01:23:29;19.70;53.50
44729;DHT22;30457;53.590;9.922;2023-07-20T01:33:00;19.60;54.50
44729;DHT22;30457;53.590;9.922;2023-07-20T01:37:27;19.50;53.80
44729;DHT22;30457;53.590;9.922;2023-07-20T01:41:55;19.50;54.10
44729;DHT22;30457;53.590;9.922;2023-07-20T01:46:21;19.50;54.20
44729;DHT22;30457;53.590;9.922;2023-07-20T01:50:46;19.50;54.30
44729;DHT22;30457;53.590;9.922;2023-07-20T01:55:12;19.50;54.50
44729;DHT22;30457;53.590;9.922;2023-07-20T01:59:37;19.50;54.60
44729;DHT22;30457;53.590;9.922;2023-07-20T02:04:03;19.50;54.70
44729;DHT22;30457;53.590;9.922;2023-07-20T02:08:28;19.50;54.70
44729;DHT22;30457;53.590;9.922;2023-07-20T02:12:56;19.50;54.80
44729;DHT22;30457;53.590;9.922;2023-07-20T02:17:22;19.60;55.00
44729;DHT22;30457;53.590;9.922;2023-07-20T02:21:48;19.50;54.90
44729;DHT22;30457;53.590;9.922;2023-07-20T02:26:13;19.50;55.00
44729;DHT22;30457;53.590;9.922;2023-07-20T02:30:39;19.50;55.10
44729;DHT22;30457;53.590;9.922;2023-07-20T02:35:05;19.50;55.20
44729;DHT22;30457;53.590;9.922;2023-07-20T02:39:31;19.40;55.10
44729;DHT22;30457;53.590;9.922;2023-07-20T02:43:57;19.40;55.10
44729;DHT22;30457;53.590;9.922;2023-07-20T02:48:22;19.40;55.10
44729;DHT22;30457;53.590;9.922;2023-07-20T02:52:48;19.40;55.40
44729;DHT22;30457;53.590;9.922;2023-07-20T02:57:14;19.40;55.40
44729;DHT22;30457;53.590;9.922;2023-07-20T03:01:39;19.40;55.60
44729;DHT22;30457;53.590;9.922;2023-07-20T03:06:07;19.30;55.40
44729;DHT22;30457;53.590;9.922;2023-07-20T03:10:40;19.30;55.30
44729;DHT22;30457;53.590;9.922;2023-07-20T03:15:06;19.30;55.90
44729;DHT22;30457;53.590;9.922;2023-07-20T03:19:33;19.30;55.60
44729;DHT22;30457;53.590;9.922;2023-07-20T03:23:58;19.30;55.70
44729;DHT22;30457;53.590;9.922;2023-07-20T03:28:24;19.30;55.60
44729;DHT22;30457;53.590;9.922;2023-07-20T03:32:49;19.30;55.70
44729;DHT22;30457;53.590;9.922;2023-07-20T03:37:15;19.30;55.60
44729;DHT22;30457;53.590;9.922;2023-07-20T03:41:40;19.20;55.60
44729;DHT22;30457;53.590;9.922;2023-07-20T03:46:06;19.20;55.50
44729;DHT22;30457;53.590;9.922;2023-07-20T03:50:32;19.20;55.60
44729;DHT22;30457;53.590;9.922;2023-07-20T03:54:58;19.20;55.60
44729;DHT22;30457;53.590;9.922;2023-07-20T03:59:24;19.20;55.70
44729;DHT22;30457;53.590;9.922;2023-07-20T04:03:50;19.20;56.00
44729;DHT22;30457;53.590;9.922;2023-07-20T04:08:15;19.20;55.80
44729;DHT22;30457;53.590;9.922;2023-07-20T04:12:41;19.20;56.00
44729;DHT22;30457;53.590;9.922;2023-07-20T04:17:07;19.20;56.10
44729;DHT22;30457;53.590;9.922;2023-07-20T04:21:39;19.20;56.20
44729;DHT22;30457;53.590;9.922;2023-07-20T04:26:04;19.20;56.20
44729;DHT22;30457;53.590;9.922;2023-07-20T04:30:32;19.20;56.20
44729;DHT22;30457;53.590;9.922;2023-07-20T04:34:59;19.20;56.20
44729;DHT22;30457;53.590;9.922;2023-07-20T04:39:24;19.30;56.50
44729;DHT22;30457;53.590;9.922;2023-07-20T04:43:50;19.30;56.70
44729;DHT22;30457;53.590;9.922;2023-07-20T04:48:23;19.40;56.70
44729;DHT22;30457;53.590;9.922;2023-07-20T04:52:51;19.40;56.70
44729;DHT22;30457;53.590;9.922;2023-07-20T04:57:19;19.40;56.50
44729;DHT22;30457;53.590;9.922;2023-07-20T05:01:47;19.50;56.60
44729;DHT22;30457;53.590;9.922;2023-07-20T05:06:15;19.60;56.80
44729;DHT22;30457;53.590;9.922;2023-07-20T05:10:40;19.60;56.80
44729;DHT22;30457;53.590;9.922;2023-07-20T05:15:06;19.70;56.80
44729;DHT22;30457;53.590;9.922;2023-07-20T05:19:32;19.80;56.70
44729;DHT22;30457;53.590;9.922;2023-07-20T05:23:58;19.80;56.80
44729;DHT22;30457;53.590;9.922;2023-07-20T05:28:24;19.90;56.60
44729;DHT22;30457;53.590;9.922;2023-07-20T05:32:49;20.00;56.70
44729;DHT22;30457;53.590;9.922;2023-07-20T05:37:17;20.10;56.70
44729;DHT22;30457;53.590;9.922;2023-07-20T05:41:43;20.20;56.60
44729;DHT22;30457;53.590;9.922;2023-07-20T05:46:08;20.30;56.70
44729;DHT22;30457;53.590;9.922;2023-07-20T05:50:34;20.40;57.00
44729;DHT22;30457;53.590;9.922;2023-07-20T05:54:59;20.50;56.90
44729;DHT22;30457;53.590;9.922;2023-07-20T05:59:27;20.70;56.40
44729;DHT22;30457;53.590;9.922;2023-07-20T06:03:54;20.70;56.40
44729;DHT22;30457;53.590;9.922;2023-07-20T06:08:20;20.80;56.20
44729;DHT22;30457;53.590;9.922;2023-07-20T06:12:45;20.90;55.90
44729;DHT22;30457;53.590;9.922;2023-07-20T06:17:11;21.00;55.70
44729;DHT22;30457;53.590;9.922;2023-07-20T06:21:37;21.10;55.50
44729;DHT22;30457;53.590;9.922;2023-07-20T06:26:03;21.20;55.50
44729;DHT22;30457;53.590;9.922;2023-07-20T06:30:28;21.40;55.20
44729;DHT22;30457;53.590;9.922;2023-07-20T06:34:54;21.50;55.00
44729;DHT22;30457;53.590;9.922;2023-07-20T06:39:19;21.70;54.40
44729;DHT22;30457;53.590;9.922;2023-07-20T06:43:45;21.80;53.80
44729;DHT22;30457;53.590;9.922;2023-07-20T06:48:11;21.90;53.60
44729;DHT22;30457;53.590;9.922;2023-07-20T06:52:37;22.00;53.30
44729;DHT22;30457;53.590;9.922;2023-07-20T06:57:03;22.00;53.10
44729;DHT22;30457;53.590;9.922;2023-07-20T07:01:28;22.10;52.80
44729;DHT22;30457;53.590;9.922;2023-07-20T07:05:55;22.20;53.50
44729;DHT22;30457;53.590;9.922;2023-07-20T07:10:21;22.40;52.40
44729;DHT22;30457;53.590;9.922;2023-07-20T07:14:47;22.50;52.30
44729;DHT22;30457;53.590;9.922;2023-07-20T07:19:12;22.60;51.40
44729;DHT22;30457;53.590;9.922;2023-07-20T07:23:38;22.70;51.50
44729;DHT22;30457;53.590;9.922;2023-07-20T07:28:04;22.90;51.40
44729;DHT22;30457;53.590;9.922;2023-07-20T07:32:29;22.90;50.60
44729;DHT22;30457;53.590;9.922;2023-07-20T07:36:55;22.90;49.80
44729;DHT22;30457;53.590;9.922;2023-07-20T07:41:21;22.90;49.70
44729;DHT22;30457;53.590;9.922;2023-07-20T07:45:46;22.90;49.90
44729;DHT22;30457;53.590;9.922;2023-07-20T07:50:12;22.90;49.90
44729;DHT22;30457;53.590;9.922;2023-07-20T07:54:37;23.00;49.50
44729;DHT22;30457;53.590;9.922;2023-07-20T07:59:03;23.10;49.20
44729;DHT22;30457;53.590;9.922;2023-07-20T08:03:28;23.10;49.00
44729;DHT22;30457;53.590;9.922;2023-07-20T08:07:54;23.20;49.20
44729;DHT22;30457;53.590;9.922;2023-07-20T08:12:19;23.30;49.40
44729;DHT22;30457;53.590;9.922;2023-07-20T08:16:45;23.40;49.10
44729;DHT22;30457;53.590;9.922;2023-07-20T08:21:11;23.60;48.20
44729;DHT22;30457;53.590;9.922;2023-07-20T08:25:37;23.60;47.40
44729;DHT22;30457;53.590;9.922;2023-07-20T08:30:05;23.70;47.20
44729;DHT22;30457;53.590;9.922;2023-07-20T08:34:31;23.70;47.40
44729;DHT22;30457;53.590;9.922;2023-07-20T08:38:56;23.80;47.50
44729;DHT22;30457;53.590;9.922;2023-07-20T08:43:23;23.90;47.20
44729;DHT22;30457;53.590;9.922;2023-07-20T08:47:52;23.90;47.80
44729;DHT22;30457;53.590;9.922;2023-07-20T08:52:18;23.80;47.70
44729;DHT22;30457;53.590;9.922;2023-07-20T08:56:45;23.70;48.30
44729;DHT22;30457;53.590;9.922;2023-07-20T09:01:11;23.60;49.60
44729;DHT22;30457;53.590;9.922;2023-07-20T09:05:37;23.60;49.40
44729;DHT22;30457;53.590;9.922;2023-07-20T09:10:04;23.70;49.50
44729;DHT22;30457;53.590;9.922;2023-07-20T09:14:31;23.80;49.30
44729;DHT22;30457;53.590;9.922;2023-07-20T09:19:00;23.90;49.20
44729;DHT22;30457;53.590;9.922;2023-07-20T09:27:58;24.10;47.40
44729;DHT22;30457;53.590;9.922;2023-07-20T09:32:27;24.10;47.70
44729;DHT22;30457;53.590;9.922;2023-07-20T09:36:52;23.90;46.90
44729;DHT22;30457;53.590;9.922;2023-07-20T09:41:19;23.80;47.20
44729;DHT22;30457;53.590;9.922;2023-07-20T09:45:44;23.60;47.70
44729;DHT22;30457;53.590;9.922;2023-07-20T09:50:11;23.60;47.90
44729;DHT22;30457;53.590;9.922;2023-07-20T09:54:38;23.50;47.80
44729;DHT22;30457;53.590;9.922;2023-07-20T09:59:04;23.50;48.00
44729;DHT22;30457;53.590;9.922;2023-07-20T10:03:30;23.60;48.50
44729;DHT22;30457;53.590;9.922;2023-07-20T10:07:57;23.80;48.80
44729;DHT22;30457;53.590;9.922;2023-07-20T10:12:23;24.10;48.80
44729;DHT22;30457;53.590;9.922;2023-07-20T10:16:51;24.30;47.60
44729;DHT22;30457;53.590;9.922;2023-07-20T10:21:19;24.50;47.20
44729;DHT22;30457;53.590;9.922;2023-07-20T10:25:48;24.70;46.40
44729;DHT22;30457;53.590;9.922;2023-07-20T10:30:15;24.80;46.00
44729;DHT22;30457;53.590;9.922;2023-07-20T10:34:42;24.90;46.10
44729;DHT22;30457;53.590;9.922;2023-07-20T10:39:25;25.00;45.70
44729;DHT22;30457;53.590;9.922;2023-07-20T10:44:07;25.10;43.40
44729;DHT22;30457;53.590;9.922;2023-07-20T10:48:33;25.20;44.70
44729;DHT22;30457;53.590;9.922;2023-07-20T10:53:10;25.20;44.50
44729;DHT22;30457;53.590;9.922;2023-07-20T10:57:36;25.20;44.00
44729;DHT22;30457;53.590;9.922;2023-07-20T11:02:06;25.20;44.40
44729;DHT22;30457;53.590;9.922;2023-07-20T11:06:32;25.20;43.90
44729;DHT22;30457;53.590;9.922;2023-07-20T11:11:34;25.20;43.90
44729;DHT22;30457;53.590;9.922;2023-07-20T11:16:02;25.10;42.80
44729;DHT22;30457;53.590;9.922;2023-07-20T11:20:30;24.90;42.60
44729;DHT22;30457;53.590;9.922;2023-07-20T11:24:57;24.80;43.40
44729;DHT22;30457;53.590;9.922;2023-07-20T11:29:23;24.80;43.80
44729;DHT22;30457;53.590;9.922;2023-07-20T11:33:50;24.80;43.00
44729;DHT22;30457;53.590;9.922;2023-07-20T11:38:16;24.90;43.00
44729;DHT22;30457;53.590;9.922;2023-07-20T11:42:43;24.90;42.70
44729;DHT22;30457;53.590;9.922;2023-07-20T11:47:10;25.00;43.00
44729;DHT22;30457;53.590;9.922;2023-07-20T11:51:36;25.10;42.90
44729;DHT22;30457;53.590;9.922;2023-07-20T11:56:04;25.10;42.30
44729;DHT22;30457;53.590;9.922;2023-07-20T12:00:29;25.10;42.80
44729;DHT22;30457;53.590;9.922;2023-07-20T12:04:56;25.20;43.00
44729;DHT22;30457;53.590;9.922;2023-07-20T12:09:21;25.20;43.10
44729;DHT22;30457;53.590;9.922;2023-07-20T12:13:47;25.40;42.90
44729;DHT22;30457;53.590;9.922;2023-07-20T12:18:12;25.50;43.50
44729;DHT22;30457;53.590;9.922;2023-07-20T12:22:43;25.60;42.50
44729;DHT22;30457;53.590;9.922;2023-07-20T12:27:08;25.70;42.10
44729;DHT22;30457;53.590;9.922;2023-07-20T12:31:38;25.70;41.90
44729;DHT22;30457;53.590;9.922;2023-07-20T12:36:04;25.60;41.40
44729;DHT22;30457;53.590;9.922;2023-07-20T12:40:30;25.60;41.90
44729;DHT22;30457;53.590;9.922;2023-07-20T12:44:55;25.50;42.10
44729;DHT22;30457;53.590;9.922;2023-07-20T12:49:21;25.60;41.80
44729;DHT22;30457;53.590;9.922;2023-07-20T12:53:46;25.60;41.90
44729;DHT22;30457;53.590;9.922;2023-07-20T12:58:12;25.60;41.00
44729;DHT22;30457;53.590;9.922;2023-07-20T13:02:38;25.70;42.10
44729;DHT22;30457;53.590;9.922;2023-07-20T13:07:04;25.80;40.50
44729;DHT22;30457;53.590;9.922;2023-07-20T13:11:30;26.00;40.40
44729;DHT22;30457;53.590;9.922;2023-07-20T13:15:55;26.20;39.80
44729;DHT22;30457;53.590;9.922;2023-07-20T13:20:21;26.40;39.50
44729;DHT22;30457;53.590;9.922;2023-07-20T13:24:47;26.50;40.00
44729;DHT22;30457;53.590;9.922;2023-07-20T13:29:15;26.70;39.70
44729;DHT22;30457;53.590;9.922;2023-07-20T13:33:42;27.00;39.50
44729;DHT22;30457;53.590;9.922;2023-07-20T13:38:08;27.10;38.20
44729;DHT22;30457;53.590;9.922;2023-07-20T13:42:34;27.20;38.50
44729;DHT22;30457;53.590;9.922;2023-07-20T13:47:01;27.30;38.60
44729;DHT22;30457;53.590;9.922;2023-07-20T13:51:26;27.30;38.40
44729;DHT22;30457;53.590;9.922;2023-07-20T13:55:52;27.30;38.80
44729;DHT22;30457;53.590;9.922;2023-07-20T14:00:18;27.40;37.70
44729;DHT22;30457;53.590;9.922;2023-07-20T14:04:43;27.50;37.30
44729;DHT22;30457;53.590;9.922;2023-07-20T14:09:09;27.70;36.90
44729;DHT22;30457;53.590;9.922;2023-07-20T14:13:34;27.80;36.90
44729;DHT22;30457;53.590;9.922;2023-07-20T14:18:00;27.90;35.90
44729;DHT22;30457;53.590;9.922;2023-07-20T14:22:26;27.90;35.30
44729;DHT22;30457;53.590;9.922;2023-07-20T14:26:51;27.90;36.10
44729;DHT22;30457;53.590;9.922;2023-07-20T14:31:17;28.00;36.00
44729;DHT22;30457;53.590;9.922;2023-07-20T14:35:42;28.10;35.30
44729;DHT22;30457;53.590;9.922;2023-07-20T14:40:08;28.30;35.50
44729;DHT22;30457;53.590;9.922;2023-07-20T14:44:34;28.40;35.60
44729;DHT22;30457;53.590;9.922;2023-07-20T14:48:59;28.50;36.00
44729;DHT22;30457;53.590;9.922;2023-07-20T14:53:25;28.60;34.70
44729;DHT22;30457;53.590;9.922;2023-07-20T14:57:54;28.60;34.00
44729;DHT22;30457;53.590;9.922;2023-07-20T15:02:20;28.60;34.30
44729;DHT22;30457;53.590;9.922;2023-07-20T15:06:46;28.60;34.00
44729;DHT22;30457;53.590;9.922;2023-07-20T15:11:12;28.50;34.90
44729;DHT22;30457;53.590;9.922;2023-07-20T15:15:37;28.50;35.20
44729;DHT22;30457;53.590;9.922;2023-07-20T15:20:03;28.40;35.30
44729;DHT22;30457;53.590;9.922;2023-07-20T15:24:33;28.30;35.00
44729;DHT22;30457;53.590;9.922;2023-07-20T15:28:59;28.30;35.40
44729;DHT22;30457;53.590;9.922;2023-07-20T15:33:24;28.30;34.50
44729;DHT22;30457;53.590;9.922;2023-07-20T15:37:50;28.30;34.90
44729;DHT22;30457;53.590;9.922;2023-07-20T15:42:16;28.50;33.90
44729;DHT22;30457;53.590;9.922;2023-07-20T15:46:47;28.50;33.60
44729;DHT22;30457;53.590;9.922;2023-07-20T15:51:13;28.50;32.80
44729;DHT22;30457;53.590;9.922;2023-07-20T15:55:39;28.40;32.80
44729;DHT22;30457;53.590;9.922;2023-07-20T16:00:05;28.40;33.50
44729;DHT22;30457;53.590;9.922;2023-07-20T16:04:38;28.30;33.60
44729;DHT22;30457;53.590;9.922;2023-07-20T16:09:04;28.40;34.10
44729;DHT22;30457;53.590;9.922;2023-07-20T16:13:30;28.30;33.10
44729;DHT22;30457;53.590;9.922;2023-07-20T16:17:55;28.30;32.40
44729;DHT22;30457;53.590;9.922;2023-07-20T16:22:22;28.20;33.10
44729;DHT22;30457;53.590;9.922;2023-07-20T16:26:47;28.10;33.60
44729;DHT22;30457;53.590;9.922;2023-07-20T16:31:15;28.00;34.40
44729;DHT22;30457;53.590;9.922;2023-07-20T16:35:40;28.00;34.30
44729;DHT22;30457;53.590;9.922;2023-07-20T16:40:08;28.00;34.00
44729;DHT22;30457;53.590;9.922;2023-07-20T16:44:36;28.10;33.90
44729;DHT22;30457;53.590;9.922;2023-07-20T16:49:02;28.10;33.70
44729;DHT22;30457;53.590;9.922;2023-07-20T16:53:29;28.10;33.80
44729;DHT22;30457;53.590;9.922;2023-07-20T16:57:55;28.10;34.00
44729;DHT22;30457;53.590;9.922;2023-07-20T17:02:21;28.00;33.80
44729;DHT22;30457;53.590;9.922;2023-07-20T17:06:46;28.00;34.20
44729;DHT22;30457;53.590;9.922;2023-07-20T17:11:12;28.10;34.10
44729;DHT22;30457;53.590;9.922;2023-07-20T17:15:38;28.10;33.50
44729;DHT22;30457;53.590;9.922;2023-07-20T17:20:04;28.20;33.60
44729;DHT22;30457;53.590;9.922;2023-07-20T17:24:31;28.40;34.00
44729;DHT22;30457;53.590;9.922;2023-07-20T17:28:56;28.50;33.40
44729;DHT22;30457;53.590;9.922;2023-07-20T17:33:23;28.50;32.80
44729;DHT22;30457;53.590;9.922;2023-07-20T17:37:48;28.40;32.80
44729;DHT22;30457;53.590;9.922;2023-07-20T17:42:14;28.20;33.00
44729;DHT22;30457;53.590;9.922;2023-07-20T17:46:39;28.00;32.60
44729;DHT22;30457;53.590;9.922;2023-07-20T17:51:05;27.70;32.90
44729;DHT22;30457;53.590;9.922;2023-07-20T17:55:32;27.40;33.50
44729;DHT22;30457;53.590;9.922;2023-07-20T17:59:57;27.20;34.00
44729;DHT22;30457;53.590;9.922;2023-07-20T18:04:23;27.00;34.30
44729;DHT22;30457;53.590;9.922;2023-07-20T18:08:49;26.90;34.80
44729;DHT22;30457;53.590;9.922;2023-07-20T18:13:14;26.80;34.70
44729;DHT22;30457;53.590;9.922;2023-07-20T18:17:40;26.70;34.90
44729;DHT22;30457;53.590;9.922;2023-07-20T18:22:05;26.60;35.00
44729;DHT22;30457;53.590;9.922;2023-07-20T18:26:31;26.40;35.30
44729;DHT22;30457;53.590;9.922;2023-07-20T18:30:57;26.30;35.20
44729;DHT22;30457;53.590;9.922;2023-07-20T18:35:22;26.20;35.30
44729;DHT22;30457;53.590;9.922;2023-07-20T18:39:48;26.10;35.50
44729;DHT22;30457;53.590;9.922;2023-07-20T18:44:13;25.90;35.90
44729;DHT22;30457;53.590;9.922;2023-07-20T18:48:39;25.80;35.90
44729;DHT22;30457;53.590;9.922;2023-07-20T18:53:05;25.60;36.10
44729;DHT22;30457;53.590;9.922;2023-07-20T18:57:30;25.50;36.30
44729;DHT22;30457;53.590;9.922;2023-07-20T19:01:56;25.50;36.70
44729;DHT22;30457;53.590;9.922;2023-07-20T19:06:22;25.30;36.60
44729;DHT22;30457;53.590;9.922;2023-07-20T19:10:47;25.20;36.70
44729;DHT22;30457;53.590;9.922;2023-07-20T19:15:13;25.20;36.80
44729;DHT22;30457;53.590;9.922;2023-07-20T19:19:39;25.10;36.90
44729;DHT22;30457;53.590;9.922;2023-07-20T19:24:05;25.00;37.20
44729;DHT22;30457;53.590;9.922;2023-07-20T19:28:30;24.90;37.10
44729;DHT22;30457;53.590;9.922;2023-07-20T19:32:56;24.80;37.30
44729;DHT22;30457;53.590;9.922;2023-07-20T19:37:21;24.70;37.40
44729;DHT22;30457;53.590;9.922;2023-07-20T19:41:47;24.60;37.40
44729;DHT22;30457;53.590;9.922;2023-07-20T19:46:13;24.50;37.50
44729;DHT22;30457;53.590;9.922;2023-07-20T19:50:38;24.40;37.80
44729;DHT22;30457;53.590;9.922;2023-07-20T19:55:04;24.30;38.20
44729;DHT22;30457;53.590;9.922;2023-07-20T19:59:31;24.30;38.30
44729;DHT22;30457;53.590;9.922;2023-07-20T20:03:57;24.20;38.50
44729;DHT22;30457;53.590;9.922;2023-07-20T20:08:22;24.20;38.70
44729;DHT22;30457;53.590;9.922;2023-07-20T20:12:51;24.10;38.90
44729;DHT22;30457;53.590;9.922;2023-07-20T20:17:16;24.10;39.00
44729;DHT22;30457;53.590;9.922;2023-07-20T20:21:42;24.00;39.00
44729;DHT22;30457;53.590;9.922;2023-07-20T20:26:07;23.90;39.60
44729;DHT22;30457;53.590;9.922;2023-07-20T20:30:37;23.90;39.50
44729;DHT22;30457;53.590;9.922;2023-07-20T20:35:03;23.90;40.00
44729;DHT22;30457;53.590;9.922;2023-07-20T20:39:30;23.80;39.70
44729;DHT22;30457;53.590;9.922;2023-07-20T20:43:56;23.70;39.80
44729;DHT22;30457;53.590;9.922;2023-07-20T20:48:21;23.70;39.80
44729;DHT22;30457;53.590;9.922;2023-07-20T20:52:47;23.70;39.90
44729;DHT22;30457;53.590;9.922;2023-07-20T20:57:14;23.60;39.80
44729;DHT22;30457;53.590;9.922;2023-07-20T21:01:39;23.50;40.00
44729;DHT22;30457;53.590;9.922;2023-07-20T21:06:05;23.40;40.10
44729;DHT22;30457;53.590;9.922;2023-07-20T21:10:33;23.40;40.40
44729;DHT22;30457;53.590;9.922;2023-07-20T21:15:00;23.30;40.50
44729;DHT22;30457;53.590;9.922;2023-07-20T21:19:31;23.20;40.60
44729;DHT22;30457;53.590;9.922;2023-07-20T21:23:56;23.10;41.50
44729;DHT22;30457;53.590;9.922;2023-07-20T21:28:22;23.10;41.10
44729;DHT22;30457;53.590;9.922;2023-07-20T21:32:47;23.00;41.10
44729;DHT22;30457;53.590;9.922;2023-07-20T21:37:14;22.90;41.10
44729;DHT22;30457;53.590;9.922;2023-07-20T21:41:40;22.80;41.20
44729;DHT22;30457;53.590;9.922;2023-07-20T21:46:05;22.70;41.50
44729;DHT22;30457;53.590;9.922;2023-07-20T21:50:31;22.60;41.90
44729;DHT22;30457;53.590;9.922;2023-07-20T21:54:56;22.60;42.30
44729;DHT22;30457;53.590;9.922;2023-07-20T21:59:22;22.50;42.40
44729;DHT22;30457;53.590;9.922;2023-07-20T22:03:47;22.40;42.70
44729;DHT22;30457;53.590;9.922;2023-07-20T22:08:13;22.40;42.70
44729;DHT22;30457;53.590;9.922;2023-07-20T22:12:39;22.40;43.00
44729;DHT22;30457;53.590;9.922;2023-07-20T22:17:05;22.30;43.00
44729;DHT22;30457;53.590;9.922;2023-07-20T22:21:31;22.20;43.30
44729;DHT22;30457;53.590;9.922;2023-07-20T22:25:58;22.20;43.30
44729;DHT22;30457;53.590;9.922;2023-07-20T22:30:23;22.10;43.80
44729;DHT22;30457;53.590;9.922;2023-07-20T22:34:49;22.10;44.30
44729;DHT22;30457;53.590;9.922;2023-07-20T22:39:14;22.00;44.50
44729;DHT22;30457;53.590;9.922;2023-07-20T22:43:40;22.00;44.40
44729;DHT22;30457;53.590;9.922;2023-07-20T22:48:06;22.00;44.60
44729;DHT22;30457;53.590;9.922;2023-07-20T22:52:31;21.90;44.50
44729;DHT22;30457;53.590;9.922;2023-07-20T22:56:57;21.90;44.70
44729;DHT22;30457;53.590;9.922;2023-07-20T23:01:23;21.90;44.90
44729;DHT22;30457;53.590;9.922;2023-07-20T23:05:48;21.90;45.20
44729;DHT22;30457;53.590;9.922;2023-07-20T23:10:15;21.90;45.30
44729;DHT22;30457;53.590;9.922;2023-07-20T23:14:41;21.80;45.50
44729;DHT22;30457;53.590;9.922;2023-07-20T23:19:07;21.80;45.40
44729;DHT22;30457;53.590;9.922;2023-07-20T23:23:33;21.80;45.60
44729;DHT22;30457;53.590;9.922;2023-07-20T23:28:00;21.90;45.80
44729;DHT22;30457;53.590;9.922;2023-07-20T23:32:26;21.80;45.70
44729;DHT22;30457;53.590;9.922;2023-07-20T23:36:52;21.80;45.70
44729;DHT22;30457;53.590;9.922;2023-07-20T23:41:18;21.80;45.70
44729;DHT22;30457;53.590;9.922;2023-07-20T23:45:44;21.80;45.90
44729;DHT22;30457;53.590;9.922;2023-07-20T23:50:10;21.80;46.00
44729;DHT22;30457;53.590;9.922;2023-07-20T23:54:35;21.70;46.10
44729;DHT22;30457;53.590;9.922;2023-07-20T23:59:01;21.70;46.00
